sensor_id;sensor_type;location;lat;lon;timestamp;temperature;humidity
34574;DHT22;20809;49.594;8.734;2022-10-28T00:00:35;11.90;99.90
34574;DHT22;20809;49.594;8.734;2022-10-28T00:03:41;11.80;99.90
34574;DHT22;20809;49.594;8.734;2022-10-28T00:06:41;11.70;99.90
34574;DHT22;20809;49.594;8.734;2022-10-28T00:09:42;11.70;99.90
34574;DHT22;20809;49.594;8.734;2022-10-28T00:12:43;11.70;99.90
34574;DHT22;20809;49.594;8.734;2022-10-28T00:15:43;11.70;99.90
34574;DHT22;20809;49.594;8.734;2022-10-28T00:18:45;11.70;99.90
34574;DHT22;20809;49.594;8.734;2022-10-28T00:21:46;11.70;99.90
34574;DHT22;20809;49.594;8.734;2022-10-28T00:24:46;11.80;99.90
34574;DHT22;20809;49.594;8.734;2022-10-28T00:27:47;11.80;99.90
34574;DHT22;20809;49.594;8.734;2022-10-28T00:30:48;11.80;99.90
34574;DHT22;20809;49.594;8.734;2022-10-28T00:33:49;11.80;99.90
34574;DHT22;20809;49.594;8.734;2022-10-28T00:36:50;11.70;99.90
34574;DHT22;20809;49.594;8.734;2022-10-28T00:39:50;11.80;99.90
34574;DHT22;20809;49.594;8.734;2022-10-28T00:42:51;11.90;99.90
34574;DHT22;20809;49.594;8.734;2022-10-28T00:45:52;11.90;99.90
34574;DHT22;20809;49.594;8.734;2022-10-28T00:52:17;11.80;99.90
34574;DHT22;20809;49.594;8.734;2022-10-28T00:59:10;11.80;99.90
34574;DHT22;20809;49.594;8.734;2022-10-28T01:02:13;11.80;99.90
34574;DHT22;20809;49.594;8.734;2022-10-28T01:05:21;11.80;99.90
34574;DHT22;20809;49.594;8.734;2022-10-28T01:08:23;11.80;99.90
34574;DHT22;20809;49.594;8.734;2022-10-28T01:12:03;11.90;99.90
34574;DHT22;20809;49.594;8.734;2022-10-28T01:18:29;11.90;99.90
34574;DHT22;20809;49.594;8.734;2022-10-28T01:31:28;11.60;99.90
34574;DHT22;20809;49.594;8.734;2022-10-28T01:35:06;11.50;99.90
34574;DHT22;20809;49.594;8.734;2022-10-28T01:41:46;11.70;99.90
34574;DHT22;20809;49.594;8.734;2022-10-28T01:48:00;11.80;99.90
34574;DHT22;20809;49.594;8.734;2022-10-28T01:51:07;11.90;99.90
34574;DHT22;20809;49.594;8.734;2022-10-28T01:54:10;12.00;99.90
34574;DHT22;20809;49.594;8.734;2022-10-28T01:57:14;12.00;99.90
34574;DHT22;20809;49.594;8.734;2022-10-28T02:00:16;12.00;99.90
34574;DHT22;20809;49.594;8.734;2022-10-28T02:03:17;12.00;99.90
34574;DHT22;20809;49.594;8.734;2022-10-28T02:06:20;11.90;99.90
34574;DHT22;20809;49.594;8.734;2022-10-28T02:12:51;11.90;99.90
34574;DHT22;20809;49.594;8.734;2022-10-28T02:16:01;11.90;99.90
34574;DHT22;20809;49.594;8.734;2022-10-28T02:19:32;12.00;99.90
34574;DHT22;20809;49.594;8.734;2022-10-28T02:22:49;12.00;99.90
34574;DHT22;20809;49.594;8.734;2022-10-28T02:26:00;12.00;99.90
34574;DHT22;20809;49.594;8.734;2022-10-28T02:32:31;12.00;99.90
34574;DHT22;20809;49.594;8.734;2022-10-28T02:35:42;11.90;99.90
34574;DHT22;20809;49.594;8.734;2022-10-28T02:38:49;11.90;99.90
34574;DHT22;20809;49.594;8.734;2022-10-28T02:41:58;11.90;99.90
34574;DHT22;20809;49.594;8.734;2022-10-28T02:45:08;11.80;99.90
34574;DHT22;20809;49.594;8.734;2022-10-28T02:48:39;11.80;99.90
34574;DHT22;20809;49.594;8.734;2022-10-28T02:51:44;11.80;99.90
34574;DHT22;20809;49.594;8.734;2022-10-28T02:54:51;11.70;99.90
34574;DHT22;20809;49.594;8.734;2022-10-28T02:57:52;11.80;99.90
34574;DHT22;20809;49.594;8.734;2022-10-28T03:00:53;11.80;99.90
34574;DHT22;20809;49.594;8.734;2022-10-28T03:03:54;11.90;99.90
34574;DHT22;20809;49.594;8.734;2022-10-28T03:06:54;12.00;99.90
34574;DHT22;20809;49.594;8.734;2022-10-28T03:09:55;12.00;99.90
34574;DHT22;20809;49.594;8.734;2022-10-28T03:12:56;11.90;99.90
34574;DHT22;20809;49.594;8.734;2022-10-28T03:15:57;11.90;99.90
34574;DHT22;20809;49.594;8.734;2022-10-28T03:18:57;11.80;99.90
34574;DHT22;20809;49.594;8.734;2022-10-28T03:21:58;11.80;99.90
34574;DHT22;20809;49.594;8.734;2022-10-28T03:24:59;11.80;99.90
34574;DHT22;20809;49.594;8.734;2022-10-28T03:28:00;11.80;99.90
34574;DHT22;20809;49.594;8.734;2022-10-28T03:31:00;11.80;99.90
34574;DHT22;20809;49.594;8.734;2022-10-28T03:34:01;11.80;99.90
34574;DHT22;20809;49.594;8.734;2022-10-28T03:37:02;11.70;99.90
34574;DHT22;20809;49.594;8.734;2022-10-28T03:40:03;11.80;99.90
34574;DHT22;20809;49.594;8.734;2022-10-28T03:43:07;11.90;99.90
34574;DHT22;20809;49.594;8.734;2022-10-28T03:46:08;11.90;99.90
34574;DHT22;20809;49.594;8.734;2022-10-28T03:49:08;12.00;99.90
34574;DHT22;20809;49.594;8.734;2022-10-28T03:52:09;12.10;99.90
34574;DHT22;20809;49.594;8.734;2022-10-28T03:55:10;12.10;99.90
34574;DHT22;20809;49.594;8.734;2022-10-28T03:58:11;12.10;99.90
34574;DHT22;20809;49.594;8.734;2022-10-28T04:01:11;12.10;99.90
34574;DHT22;20809;49.594;8.734;2022-10-28T04:04:12;12.10;99.90
34574;DHT22;20809;49.594;8.734;2022-10-28T04:07:13;12.20;99.90
34574;DHT22;20809;49.594;8.734;2022-10-28T04:10:14;12.30;99.90
34574;DHT22;20809;49.594;8.734;2022-10-28T04:13:15;12.40;99.90
34574;DHT22;20809;49.594;8.734;2022-10-28T04:16:16;12.40;99.90
34574;DHT22;20809;49.594;8.734;2022-10-28T04:19:17;12.40;99.90
34574;DHT22;20809;49.594;8.734;2022-10-28T04:22:17;12.50;99.90
34574;DHT22;20809;49.594;8.734;2022-10-28T04:25:18;12.50;99.90
34574;DHT22;20809;49.594;8.734;2022-10-28T04:28:19;12.50;99.90
34574;DHT22;20809;49.594;8.734;2022-10-28T04:31:21;12.40;99.90
34574;DHT22;20809;49.594;8.734;2022-10-28T04:34:22;12.50;99.90
34574;DHT22;20809;49.594;8.734;2022-10-28T04:37:23;12.50;99.90
34574;DHT22;20809;49.594;8.734;2022-10-28T04:40:23;12.40;99.90
34574;DHT22;20809;49.594;8.734;2022-10-28T04:43:24;12.50;99.90
34574;DHT22;20809;49.594;8.734;2022-10-28T04:46:25;12.50;99.90
34574;DHT22;20809;49.594;8.734;2022-10-28T04:49:26;12.40;99.90
34574;DHT22;20809;49.594;8.734;2022-10-28T04:52:26;12.40;99.90
34574;DHT22;20809;49.594;8.734;2022-10-28T04:55:27;12.40;99.90
34574;DHT22;20809;49.594;8.734;2022-10-28T04:58:28;12.40;99.90
34574;DHT22;20809;49.594;8.734;2022-10-28T05:01:29;12.40;99.90
34574;DHT22;20809;49.594;8.734;2022-10-28T05:04:29;12.40;99.90
34574;DHT22;20809;49.594;8.734;2022-10-28T05:07:30;12.40;99.90
34574;DHT22;20809;49.594;8.734;2022-10-28T05:10:31;12.40;99.90
34574;DHT22;20809;49.594;8.734;2022-10-28T05:13:32;12.40;99.90
34574;DHT22;20809;49.594;8.734;2022-10-28T05:16:32;12.40;99.90
34574;DHT22;20809;49.594;8.734;2022-10-28T05:19:33;12.40;99.90
34574;DHT22;20809;49.594;8.734;2022-10-28T05:22:34;12.40;99.90
34574;DHT22;20809;49.594;8.734;2022-10-28T05:25:35;12.40;99.90
34574;DHT22;20809;49.594;8.734;2022-10-28T05:28:36;12.50;99.90
34574;DHT22;20809;49.594;8.734;2022-10-28T05:31:36;12.60;99.90
34574;DHT22;20809;49.594;8.734;2022-10-28T05:34:37;12.60;99.90
34574;DHT22;20809;49.594;8.734;2022-10-28T05:37:38;12.50;99.90
34574;DHT22;20809;49.594;8.734;2022-10-28T05:40:39;12.50;99.90
34574;DHT22;20809;49.594;8.734;2022-10-28T05:43:40;12.30;99.90
34574;DHT22;20809;49.594;8.734;2022-10-28T05:46:41;12.20;99.90
34574;DHT22;20809;49.594;8.734;2022-10-28T05:49:41;12.20;99.90
34574;DHT22;20809;49.594;8.734;2022-10-28T05:52:50;12.10;99.90
34574;DHT22;20809;49.594;8.734;2022-10-28T05:55:51;12.00;99.90
34574;DHT22;20809;49.594;8.734;2022-10-28T05:58:51;12.00;99.90
34574;DHT22;20809;49.594;8.734;2022-10-28T06:01:52;12.00;99.90
34574;DHT22;20809;49.594;8.734;2022-10-28T06:04:53;12.00;99.90
34574;DHT22;20809;49.594;8.734;2022-10-28T06:07:53;12.00;99.90
34574;DHT22;20809;49.594;8.734;2022-10-28T06:10:54;12.10;99.90
34574;DHT22;20809;49.594;8.734;2022-10-28T06:13:55;12.10;99.90
34574;DHT22;20809;49.594;8.734;2022-10-28T06:16:56;12.10;99.90
34574;DHT22;20809;49.594;8.734;2022-10-28T06:19:56;12.10;99.90
34574;DHT22;20809;49.594;8.734;2022-10-28T06:22:57;12.00;99.90
34574;DHT22;20809;49.594;8.734;2022-10-28T06:26:00;12.10;99.90
34574;DHT22;20809;49.594;8.734;2022-10-28T06:29:01;12.10;99.90
34574;DHT22;20809;49.594;8.734;2022-10-28T06:32:01;12.10;99.90
34574;DHT22;20809;49.594;8.734;2022-10-28T06:35:02;12.10;99.90
34574;DHT22;20809;49.594;8.734;2022-10-28T06:38:03;12.20;99.90
34574;DHT22;20809;49.594;8.734;2022-10-28T06:41:04;12.30;99.90
34574;DHT22;20809;49.594;8.734;2022-10-28T06:44:05;12.40;99.90
34574;DHT22;20809;49.594;8.734;2022-10-28T06:47:05;12.50;99.90
34574;DHT22;20809;49.594;8.734;2022-10-28T06:50:06;12.50;99.90
34574;DHT22;20809;49.594;8.734;2022-10-28T06:53:08;12.70;99.90
34574;DHT22;20809;49.594;8.734;2022-10-28T06:56:08;12.80;99.90
34574;DHT22;20809;49.594;8.734;2022-10-28T06:59:10;13.00;99.90
34574;DHT22;20809;49.594;8.734;2022-10-28T07:02:10;13.10;99.90
34574;DHT22;20809;49.594;8.734;2022-10-28T07:05:11;13.30;99.90
34574;DHT22;20809;49.594;8.734;2022-10-28T07:08:12;13.40;99.90
34574;DHT22;20809;49.594;8.734;2022-10-28T07:11:13;13.50;99.90
34574;DHT22;20809;49.594;8.734;2022-10-28T07:14:14;13.60;99.90
34574;DHT22;20809;49.594;8.734;2022-10-28T07:17:15;13.70;99.90
34574;DHT22;20809;49.594;8.734;2022-10-28T07:20:15;13.70;99.90
34574;DHT22;20809;49.594;8.734;2022-10-28T07:23:17;13.80;99.90
34574;DHT22;20809;49.594;8.734;2022-10-28T07:26:18;13.80;99.90
34574;DHT22;20809;49.594;8.734;2022-10-28T07:29:19;13.80;99.90
34574;DHT22;20809;49.594;8.734;2022-10-28T07:32:19;13.90;99.90
34574;DHT22;20809;49.594;8.734;2022-10-28T07:35:20;13.90;99.90
34574;DHT22;20809;49.594;8.734;2022-10-28T07:38:21;14.00;99.90
34574;DHT22;20809;49.594;8.734;2022-10-28T07:41:23;14.20;99.90
34574;DHT22;20809;49.594;8.734;2022-10-28T07:44:23;14.30;99.90
34574;DHT22;20809;49.594;8.734;2022-10-28T07:47:24;14.40;99.90
34574;DHT22;20809;49.594;8.734;2022-10-28T07:50:25;14.50;99.90
34574;DHT22;20809;49.594;8.734;2022-10-28T07:53:26;14.60;99.90
34574;DHT22;20809;49.594;8.734;2022-10-28T07:56:27;14.70;99.90
34574;DHT22;20809;49.594;8.734;2022-10-28T07:59:27;14.80;99.90
34574;DHT22;20809;49.594;8.734;2022-10-28T08:02:28;14.80;99.90
34574;DHT22;20809;49.594;8.734;2022-10-28T08:05:29;14.70;99.90
34574;DHT22;20809;49.594;8.734;2022-10-28T08:08:29;14.80;99.90
34574;DHT22;20809;49.594;8.734;2022-10-28T08:11:30;14.90;99.90
34574;DHT22;20809;49.594;8.734;2022-10-28T08:14:31;15.10;99.90
34574;DHT22;20809;49.594;8.734;2022-10-28T08:17:32;15.30;99.90
34574;DHT22;20809;49.594;8.734;2022-10-28T08:20:32;15.60;99.90
34574;DHT22;20809;49.594;8.734;2022-10-28T08:23:34;15.80;99.90
34574;DHT22;20809;49.594;8.734;2022-10-28T08:26:34;16.00;99.90
34574;DHT22;20809;49.594;8.734;2022-10-28T08:29:35;16.10;99.90
34574;DHT22;20809;49.594;8.734;2022-10-28T08:32:36;16.30;99.90
34574;DHT22;20809;49.594;8.734;2022-10-28T08:35:37;16.60;99.90
34574;DHT22;20809;49.594;8.734;2022-10-28T08:38:38;16.80;99.90
34574;DHT22;20809;49.594;8.734;2022-10-28T08:51:16;16.90;99.90
34574;DHT22;20809;49.594;8.734;2022-10-28T08:54:33;17.00;99.90
34574;DHT22;20809;49.594;8.734;2022-10-28T08:57:42;17.00;99.90
34574;DHT22;20809;49.594;8.734;2022-10-28T09:00:49;17.10;99.90
34574;DHT22;20809;49.594;8.734;2022-10-28T09:03:50;17.20;99.90
34574;DHT22;20809;49.594;8.734;2022-10-28T09:06:52;17.30;99.90
34574;DHT22;20809;49.594;8.734;2022-10-28T09:09:54;17.40;99.90
34574;DHT22;20809;49.594;8.734;2022-10-28T09:13:06;17.70;99.90
34574;DHT22;20809;49.594;8.734;2022-10-28T09:16:44;18.10;99.90
34574;DHT22;20809;49.594;8.734;2022-10-28T09:20:03;18.50;99.90
34574;DHT22;20809;49.594;8.734;2022-10-28T09:26:51;19.00;99.90
34574;DHT22;20809;49.594;8.734;2022-10-28T09:36:40;19.60;99.90
34574;DHT22;20809;49.594;8.734;2022-10-28T09:39:50;19.60;99.90
34574;DHT22;20809;49.594;8.734;2022-10-28T09:43:14;19.70;99.90
34574;DHT22;20809;49.594;8.734;2022-10-28T09:46:21;19.60;99.90
34574;DHT22;20809;49.594;8.734;2022-10-28T09:49:34;19.40;99.90
34574;DHT22;20809;49.594;8.734;2022-10-28T09:52:42;19.30;99.90
34574;DHT22;20809;49.594;8.734;2022-10-28T09:55:46;19.30;99.90
34574;DHT22;20809;49.594;8.734;2022-10-28T09:58:49;19.10;99.90
34574;DHT22;20809;49.594;8.734;2022-10-28T10:01:50;19.00;99.90
34574;DHT22;20809;49.594;8.734;2022-10-28T10:04:54;19.20;99.90
34574;DHT22;20809;49.594;8.734;2022-10-28T10:08:05;19.50;99.90
34574;DHT22;20809;49.594;8.734;2022-10-28T10:14:37;19.90;99.90
34574;DHT22;20809;49.594;8.734;2022-10-28T10:17:43;19.90;99.90
34574;DHT22;20809;49.594;8.734;2022-10-28T10:20:48;20.00;99.90
34574;DHT22;20809;49.594;8.734;2022-10-28T10:23:49;20.10;99.90
34574;DHT22;20809;49.594;8.734;2022-10-28T10:26:51;20.20;99.90
34574;DHT22;20809;49.594;8.734;2022-10-28T10:29:53;20.20;99.90
34574;DHT22;20809;49.594;8.734;2022-10-28T10:32:55;20.30;99.90
34574;DHT22;20809;49.594;8.734;2022-10-28T10:39:03;20.40;99.90
34574;DHT22;20809;49.594;8.734;2022-10-28T10:42:14;20.40;99.90
34574;DHT22;20809;49.594;8.734;2022-10-28T10:45:26;20.40;99.90
34574;DHT22;20809;49.594;8.734;2022-10-28T10:48:28;20.50;99.90
34574;DHT22;20809;49.594;8.734;2022-10-28T10:51:29;20.60;99.90
34574;DHT22;20809;49.594;8.734;2022-10-28T10:54:31;20.90;99.90
34574;DHT22;20809;49.594;8.734;2022-10-28T10:57:33;21.00;99.90
34574;DHT22;20809;49.594;8.734;2022-10-28T11:00:36;21.20;99.90
34574;DHT22;20809;49.594;8.734;2022-10-28T11:03:46;21.50;99.90
34574;DHT22;20809;49.594;8.734;2022-10-28T11:06:50;21.70;99.90
34574;DHT22;20809;49.594;8.734;2022-10-28T11:09:52;21.90;99.90
34574;DHT22;20809;49.594;8.734;2022-10-28T11:12:55;22.10;99.90
34574;DHT22;20809;49.594;8.734;2022-10-28T11:16:00;22.30;99.90
34574;DHT22;20809;49.594;8.734;2022-10-28T11:19:18;22.50;99.90
34574;DHT22;20809;49.594;8.734;2022-10-28T11:22:48;22.80;99.90
34574;DHT22;20809;49.594;8.734;2022-10-28T11:25:58;23.00;99.90
34574;DHT22;20809;49.594;8.734;2022-10-28T11:29:10;23.20;99.90
34574;DHT22;20809;49.594;8.734;2022-10-28T11:36:10;23.40;99.90
34574;DHT22;20809;49.594;8.734;2022-10-28T11:39:33;23.50;99.90
34574;DHT22;20809;49.594;8.734;2022-10-28T11:42:57;23.50;99.90
34574;DHT22;20809;49.594;8.734;2022-10-28T11:46:24;23.50;99.90
34574;DHT22;20809;49.594;8.734;2022-10-28T11:50:04;23.60;99.90
34574;DHT22;20809;49.594;8.734;2022-10-28T11:56:36;23.80;99.90
34574;DHT22;20809;49.594;8.734;2022-10-28T12:13:32;24.20;99.90
34574;DHT22;20809;49.594;8.734;2022-10-28T12:19:53;24.50;99.90
34574;DHT22;20809;49.594;8.734;2022-10-28T12:23:00;24.70;99.90
34574;DHT22;20809;49.594;8.734;2022-10-28T12:26:05;24.80;99.90
34574;DHT22;20809;49.594;8.734;2022-10-28T12:29:21;24.90;99.90
34574;DHT22;20809;49.594;8.734;2022-10-28T12:32:27;24.90;99.90
34574;DHT22;20809;49.594;8.734;2022-10-28T12:35:33;25.00;99.90
34574;DHT22;20809;49.594;8.734;2022-10-28T12:38:39;25.10;99.90
34574;DHT22;20809;49.594;8.734;2022-10-28T12:41:51;25.00;99.90
34574;DHT22;20809;49.594;8.734;2022-10-28T12:44:56;25.00;99.90
34574;DHT22;20809;49.594;8.734;2022-10-28T12:51:43;24.90;99.90
34574;DHT22;20809;49.594;8.734;2022-10-28T12:58:27;24.70;99.90
34574;DHT22;20809;49.594;8.734;2022-10-28T13:01:31;24.50;99.90
34574;DHT22;20809;49.594;8.734;2022-10-28T13:04:35;24.30;99.90
34574;DHT22;20809;49.594;8.734;2022-10-28T13:07:44;24.10;99.90
34574;DHT22;20809;49.594;8.734;2022-10-28T13:11:11;24.10;99.90
34574;DHT22;20809;49.594;8.734;2022-10-28T13:18:03;24.10;99.90
34574;DHT22;20809;49.594;8.734;2022-10-28T13:28:14;24.80;99.90
34574;DHT22;20809;49.594;8.734;2022-10-28T13:31:15;24.60;99.90
34574;DHT22;20809;49.594;8.734;2022-10-28T13:34:18;24.40;99.90
34574;DHT22;20809;49.594;8.734;2022-10-28T13:37:22;24.10;99.90
34574;DHT22;20809;49.594;8.734;2022-10-28T13:47:12;23.60;99.90
34574;DHT22;20809;49.594;8.734;2022-10-28T13:50:32;23.40;99.90
34574;DHT22;20809;49.594;8.734;2022-10-28T13:56:44;23.30;99.90
34574;DHT22;20809;49.594;8.734;2022-10-28T14:03:26;23.40;99.90
34574;DHT22;20809;49.594;8.734;2022-10-28T14:06:30;23.40;99.90
34574;DHT22;20809;49.594;8.734;2022-10-28T14:09:34;23.40;99.90
34574;DHT22;20809;49.594;8.734;2022-10-28T14:12:40;23.40;99.90
34574;DHT22;20809;49.594;8.734;2022-10-28T14:15:42;23.40;99.90
34574;DHT22;20809;49.594;8.734;2022-10-28T14:22:05;23.50;99.90
34574;DHT22;20809;49.594;8.734;2022-10-28T14:25:55;23.50;99.90
34574;DHT22;20809;49.594;8.734;2022-10-28T14:28:50;23.60;99.90
34574;DHT22;20809;49.594;8.734;2022-10-28T14:31:51;23.70;99.90
34574;DHT22;20809;49.594;8.734;2022-10-28T14:34:53;23.70;99.90
34574;DHT22;20809;49.594;8.734;2022-10-28T14:48:04;23.20;99.90
34574;DHT22;20809;49.594;8.734;2022-10-28T14:51:19;23.00;99.90
34574;DHT22;20809;49.594;8.734;2022-10-28T14:57:46;22.70;99.90
34574;DHT22;20809;49.594;8.734;2022-10-28T15:01:24;22.70;99.90
34574;DHT22;20809;49.594;8.734;2022-10-28T15:04:23;22.70;99.90
34574;DHT22;20809;49.594;8.734;2022-10-28T15:07:24;22.70;99.90
34574;DHT22;20809;49.594;8.734;2022-10-28T15:10:27;22.80;99.90
34574;DHT22;20809;49.594;8.734;2022-10-28T15:13:28;22.80;99.90
34574;DHT22;20809;49.594;8.734;2022-10-28T15:16:29;22.80;99.90
34574;DHT22;20809;49.594;8.734;2022-10-28T15:19:33;22.70;99.90
34574;DHT22;20809;49.594;8.734;2022-10-28T15:22:34;22.70;99.90
34574;DHT22;20809;49.594;8.734;2022-10-28T15:25:35;22.50;99.90
34574;DHT22;20809;49.594;8.734;2022-10-28T15:28:36;22.30;99.90
34574;DHT22;20809;49.594;8.734;2022-10-28T15:32:08;22.10;99.90
34574;DHT22;20809;49.594;8.734;2022-10-28T15:38:36;21.80;99.90
34574;DHT22;20809;49.594;8.734;2022-10-28T15:41:45;21.60;99.90
34574;DHT22;20809;49.594;8.734;2022-10-28T15:44:53;21.40;99.90
34574;DHT22;20809;49.594;8.734;2022-10-28T15:47:56;21.20;99.90
34574;DHT22;20809;49.594;8.734;2022-10-28T15:51:17;21.10;99.90
34574;DHT22;20809;49.594;8.734;2022-10-28T15:54:18;21.00;99.90
34574;DHT22;20809;49.594;8.734;2022-10-28T15:57:26;21.00;99.90
34574;DHT22;20809;49.594;8.734;2022-10-28T16:00:29;20.90;99.90
34574;DHT22;20809;49.594;8.734;2022-10-28T16:03:43;20.90;99.90
34574;DHT22;20809;49.594;8.734;2022-10-28T16:06:44;20.90;99.90
34574;DHT22;20809;49.594;8.734;2022-10-28T16:09:46;20.80;99.90
34574;DHT22;20809;49.594;8.734;2022-10-28T16:12:48;20.70;99.90
34574;DHT22;20809;49.594;8.734;2022-10-28T16:19:06;20.50;99.90
34574;DHT22;20809;49.594;8.734;2022-10-28T16:22:14;20.40;99.90
34574;DHT22;20809;49.594;8.734;2022-10-28T16:25:18;20.30;99.90
34574;DHT22;20809;49.594;8.734;2022-10-28T16:28:25;20.20;99.90
34574;DHT22;20809;49.594;8.734;2022-10-28T16:31:28;20.10;99.90
34574;DHT22;20809;49.594;8.734;2022-10-28T16:34:29;20.00;99.90
34574;DHT22;20809;49.594;8.734;2022-10-28T16:37:31;19.90;99.90
34574;DHT22;20809;49.594;8.734;2022-10-28T16:40:33;19.70;99.90
34574;DHT22;20809;49.594;8.734;2022-10-28T16:43:34;19.60;99.90
34574;DHT22;20809;49.594;8.734;2022-10-28T16:46:35;19.50;99.90
34574;DHT22;20809;49.594;8.734;2022-10-28T16:49:35;19.40;99.90
34574;DHT22;20809;49.594;8.734;2022-10-28T16:52:36;19.30;99.90
34574;DHT22;20809;49.594;8.734;2022-10-28T16:55:37;19.20;99.90
34574;DHT22;20809;49.594;8.734;2022-10-28T16:58:37;19.10;99.90
34574;DHT22;20809;49.594;8.734;2022-10-28T17:01:39;19.00;99.90
34574;DHT22;20809;49.594;8.734;2022-10-28T17:04:40;19.00;99.90
34574;DHT22;20809;49.594;8.734;2022-10-28T17:07:40;19.00;99.90
34574;DHT22;20809;49.594;8.734;2022-10-28T17:10:41;19.00;99.90
34574;DHT22;20809;49.594;8.734;2022-10-28T17:13:42;19.00;99.90
34574;DHT22;20809;49.594;8.734;2022-10-28T17:16:43;18.90;99.90
34574;DHT22;20809;49.594;8.734;2022-10-28T17:19:44;18.90;99.90
34574;DHT22;20809;49.594;8.734;2022-10-28T17:22:45;18.90;99.90
34574;DHT22;20809;49.594;8.734;2022-10-28T17:25:55;18.90;99.90
34574;DHT22;20809;49.594;8.734;2022-10-28T17:28:56;18.80;99.90
34574;DHT22;20809;49.594;8.734;2022-10-28T17:31:57;18.70;99.90
34574;DHT22;20809;49.594;8.734;2022-10-28T17:34:57;18.70;99.90
34574;DHT22;20809;49.594;8.734;2022-10-28T17:37:58;18.60;99.90
34574;DHT22;20809;49.594;8.734;2022-10-28T17:40:59;18.60;99.90
34574;DHT22;20809;49.594;8.734;2022-10-28T17:44:01;18.50;99.90
34574;DHT22;20809;49.594;8.734;2022-10-28T17:47:01;18.20;99.90
34574;DHT22;20809;49.594;8.734;2022-10-28T17:50:02;18.00;99.90
34574;DHT22;20809;49.594;8.734;2022-10-28T17:53:03;17.90;99.90
34574;DHT22;20809;49.594;8.734;2022-10-28T17:56:05;17.80;99.90
34574;DHT22;20809;49.594;8.734;2022-10-28T17:59:06;17.80;99.90
34574;DHT22;20809;49.594;8.734;2022-10-28T18:02:09;17.80;99.90
34574;DHT22;20809;49.594;8.734;2022-10-28T18:05:11;17.80;99.90
34574;DHT22;20809;49.594;8.734;2022-10-28T18:08:12;17.70;99.90
34574;DHT22;20809;49.594;8.734;2022-10-28T18:11:14;17.80;99.90
34574;DHT22;20809;49.594;8.734;2022-10-28T18:14:16;17.80;99.90
34574;DHT22;20809;49.594;8.734;2022-10-28T18:17:17;17.70;99.90
34574;DHT22;20809;49.594;8.734;2022-10-28T18:20:20;17.70;99.90
34574;DHT22;20809;49.594;8.734;2022-10-28T18:23:32;17.50;99.90
34574;DHT22;20809;49.594;8.734;2022-10-28T18:29:39;17.40;99.90
34574;DHT22;20809;49.594;8.734;2022-10-28T18:32:39;17.40;99.90
34574;DHT22;20809;49.594;8.734;2022-10-28T18:35:40;17.40;99.90
34574;DHT22;20809;49.594;8.734;2022-10-28T18:38:40;17.30;99.90
34574;DHT22;20809;49.594;8.734;2022-10-28T18:41:41;17.10;99.90
34574;DHT22;20809;49.594;8.734;2022-10-28T18:44:43;16.90;99.90
34574;DHT22;20809;49.594;8.734;2022-10-28T18:47:43;16.60;99.90
34574;DHT22;20809;49.594;8.734;2022-10-28T18:50:54;16.30;99.90
34574;DHT22;20809;49.594;8.734;2022-10-28T18:53:56;16.10;99.90
34574;DHT22;20809;49.594;8.734;2022-10-28T18:56:57;16.10;99.90
34574;DHT22;20809;49.594;8.734;2022-10-28T18:59:57;16.00;99.90
34574;DHT22;20809;49.594;8.734;2022-10-28T19:02:58;16.00;99.90
34574;DHT22;20809;49.594;8.734;2022-10-28T19:06:04;16.00;99.90
34574;DHT22;20809;49.594;8.734;2022-10-28T19:09:05;16.00;99.90
34574;DHT22;20809;49.594;8.734;2022-10-28T19:12:07;15.90;99.90
34574;DHT22;20809;49.594;8.734;2022-10-28T19:15:08;15.80;99.90
34574;DHT22;20809;49.594;8.734;2022-10-28T19:18:08;15.60;99.90
34574;DHT22;20809;49.594;8.734;2022-10-28T19:21:12;15.40;99.90
34574;DHT22;20809;49.594;8.734;2022-10-28T19:24:13;15.40;99.90
34574;DHT22;20809;49.594;8.734;2022-10-28T19:27:14;15.20;99.90
34574;DHT22;20809;49.594;8.734;2022-10-28T19:30:14;15.10;99.90
34574;DHT22;20809;49.594;8.734;2022-10-28T19:33:15;15.10;99.90
34574;DHT22;20809;49.594;8.734;2022-10-28T19:36:24;15.00;99.90
34574;DHT22;20809;49.594;8.734;2022-10-28T19:39:25;14.90;99.90
34574;DHT22;20809;49.594;8.734;2022-10-28T19:42:25;14.90;99.90
34574;DHT22;20809;49.594;8.734;2022-10-28T19:45:26;14.90;99.90
34574;DHT22;20809;49.594;8.734;2022-10-28T19:48:27;15.00;99.90
34574;DHT22;20809;49.594;8.734;2022-10-28T19:51:31;15.00;99.90
34574;DHT22;20809;49.594;8.734;2022-10-28T19:54:32;15.00;99.90
34574;DHT22;20809;49.594;8.734;2022-10-28T19:57:33;15.00;99.90
34574;DHT22;20809;49.594;8.734;2022-10-28T20:00:33;15.00;99.90
34574;DHT22;20809;49.594;8.734;2022-10-28T20:03:34;15.10;99.90
34574;DHT22;20809;49.594;8.734;2022-10-28T20:06:37;14.90;99.90
34574;DHT22;20809;49.594;8.734;2022-10-28T20:09:38;14.70;99.90
34574;DHT22;20809;49.594;8.734;2022-10-28T20:12:38;14.60;99.90
34574;DHT22;20809;49.594;8.734;2022-10-28T20:15:39;14.50;99.90
34574;DHT22;20809;49.594;8.734;2022-10-28T20:18:40;14.40;99.90
34574;DHT22;20809;49.594;8.734;2022-10-28T20:21:40;14.40;99.90
34574;DHT22;20809;49.594;8.734;2022-10-28T20:24:43;14.40;99.90
34574;DHT22;20809;49.594;8.734;2022-10-28T20:27:43;14.40;99.90
34574;DHT22;20809;49.594;8.734;2022-10-28T20:30:54;14.40;99.90
34574;DHT22;20809;49.594;8.734;2022-10-28T20:33:57;14.30;99.90
34574;DHT22;20809;49.594;8.734;2022-10-28T20:36:58;14.20;99.90
34574;DHT22;20809;49.594;8.734;2022-10-28T20:39:58;14.10;99.90
34574;DHT22;20809;49.594;8.734;2022-10-28T20:42:59;14.10;99.90
34574;DHT22;20809;49.594;8.734;2022-10-28T20:46:00;14.00;99.90
34574;DHT22;20809;49.594;8.734;2022-10-28T20:49:02;13.90;99.90
34574;DHT22;20809;49.594;8.734;2022-10-28T20:52:03;13.90;99.90
34574;DHT22;20809;49.594;8.734;2022-10-28T20:55:04;13.90;99.90
34574;DHT22;20809;49.594;8.734;2022-10-28T20:58:06;14.00;99.90
34574;DHT22;20809;49.594;8.734;2022-10-28T21:01:15;13.90;99.90
34574;DHT22;20809;49.594;8.734;2022-10-28T21:04:16;13.90;99.90
34574;DHT22;20809;49.594;8.734;2022-10-28T21:07:16;13.90;99.90
34574;DHT22;20809;49.594;8.734;2022-10-28T21:10:17;14.00;99.90
34574;DHT22;20809;49.594;8.734;2022-10-28T21:13:18;14.00;99.90
34574;DHT22;20809;49.594;8.734;2022-10-28T21:16:19;13.90;99.90
34574;DHT22;20809;49.594;8.734;2022-10-28T21:19:20;13.90;99.90
34574;DHT22;20809;49.594;8.734;2022-10-28T21:22:21;13.80;99.90
34574;DHT22;20809;49.594;8.734;2022-10-28T21:25:22;13.70;99.90
34574;DHT22;20809;49.594;8.734;2022-10-28T21:28:23;13.70;99.90
34574;DHT22;20809;49.594;8.734;2022-10-28T21:31:23;13.60;99.90
34574;DHT22;20809;49.594;8.734;2022-10-28T21:34:24;13.50;99.90
34574;DHT22;20809;49.594;8.734;2022-10-28T21:37:25;13.40;99.90
34574;DHT22;20809;49.594;8.734;2022-10-28T21:40:25;13.40;99.90
34574;DHT22;20809;49.594;8.734;2022-10-28T21:43:28;13.30;99.90